sensor_id;sensor_type;location;lat;lon;timestamp;pressure;altitude;pressure_sealevel;temperature;humidity
59289;BME280;45056;47.602;9.886;2023-04-15T00:01:32;91920.28;;;6.30;51.53
59289;BME280;45056;47.602;9.886;2023-04-15T00:04:02;91914.56;;;6.28;51.55
59289;BME280;45056;47.602;9.886;2023-04-15T00:06:32;91912.75;;;6.25;50.87
59289;BME280;45056;47.602;9.886;2023-04-15T00:09:00;91919.31;;;6.24;51.03
59289;BME280;45056;47.602;9.886;2023-04-15T00:11:29;91917.47;;;6.20;50.68
59289;BME280;45056;47.602;9.886;2023-04-15T00:13:57;91915.97;;;6.19;50.86
59289;BME280;45056;47.602;9.886;2023-04-15T00:16:25;91914.47;;;6.18;50.69
59289;BME280;45056;47.602;9.886;2023-04-15T00:18:53;91909.94;;;6.15;50.48
59289;BME280;45056;47.602;9.886;2023-04-15T00:21:22;91912.00;;;6.11;50.55
59289;BME280;45056;47.602;9.886;2023-04-15T00:23:51;91911.38;;;6.07;50.81
59289;BME280;45056;47.602;9.886;2023-04-15T00:26:19;91910.75;;;6.03;50.97
59289;BME280;45056;47.602;9.886;2023-04-15T00:28:47;91911.94;;;6.02;50.96
59289;BME280;45056;47.602;9.886;2023-04-15T00:31:15;91913.53;;;5.99;51.12
59289;BME280;45056;47.602;9.886;2023-04-15T00:33:43;91915.50;;;5.99;51.44
59289;BME280;45056;47.602;9.886;2023-04-15T00:36:11;91905.13;;;5.97;51.42
59289;BME280;45056;47.602;9.886;2023-04-15T00:38:40;91912.47;;;5.97;51.69
59289;BME280;45056;47.602;9.886;2023-04-15T00:41:10;91913.00;;;5.91;51.67
59289;BME280;45056;47.602;9.886;2023-04-15T00:43:38;91911.63;;;5.87;52.38
59289;BME280;45056;47.602;9.886;2023-04-15T00:46:08;91913.38;;;5.81;51.99
59289;BME280;45056;47.602;9.886;2023-04-15T00:48:39;91909.59;;;5.78;51.73
59289;BME280;45056;47.602;9.886;2023-04-15T00:51:08;91910.03;;;5.76;51.69
59289;BME280;45056;47.602;9.886;2023-04-15T00:53:36;91904.75;;;5.73;51.70
59289;BME280;45056;47.602;9.886;2023-04-15T00:56:05;91905.63;;;5.70;51.48
59289;BME280;45056;47.602;9.886;2023-04-15T00:58:34;91909.53;;;5.69;51.55
59289;BME280;45056;47.602;9.886;2023-04-15T01:01:03;91905.31;;;5.68;51.75
59289;BME280;45056;47.602;9.886;2023-04-15T01:03:31;91910.72;;;5.68;51.72
59289;BME280;45056;47.602;9.886;2023-04-15T01:05:59;91904.13;;;5.69;51.78
59289;BME280;45056;47.602;9.886;2023-04-15T01:08:28;91911.03;;;5.70;51.76
59289;BME280;45056;47.602;9.886;2023-04-15T01:10:57;91910.72;;;5.68;51.62
59289;BME280;45056;47.602;9.886;2023-04-15T01:13:29;91914.94;;;5.69;51.81
59289;BME280;45056;47.602;9.886;2023-04-15T01:16:02;91916.13;;;5.68;51.76
59289;BME280;45056;47.602;9.886;2023-04-15T01:18:30;91912.66;;;5.67;51.59
59289;BME280;45056;47.602;9.886;2023-04-15T01:21:00;91913.09;;;5.66;51.70
59289;BME280;45056;47.602;9.886;2023-04-15T01:23:29;91913.97;;;5.62;51.09
59289;BME280;45056;47.602;9.886;2023-04-15T01:25:59;91914.81;;;5.59;51.15
59289;BME280;45056;47.602;9.886;2023-04-15T01:28:27;91912.97;;;5.56;51.25
59289;BME280;45056;47.602;9.886;2023-04-15T01:31:05;91913.84;;;5.53;51.33
59289;BME280;45056;47.602;9.886;2023-04-15T01:33:34;91917.00;;;5.52;51.40
59289;BME280;45056;47.602;9.886;2023-04-15T01:36:02;91914.72;;;5.50;51.46
59289;BME280;45056;47.602;9.886;2023-04-15T01:38:33;91913.66;;;5.47;51.65
59289;BME280;45056;47.602;9.886;2023-04-15T01:41:02;91910.63;;;5.45;51.50
59289;BME280;45056;47.602;9.886;2023-04-15T01:43:33;91911.50;;;5.42;51.53
59289;BME280;45056;47.602;9.886;2023-04-15T01:46:01;91906.09;;;5.42;51.59
59289;BME280;45056;47.602;9.886;2023-04-15T01:48:29;91910.75;;;5.42;51.37
59289;BME280;45056;47.602;9.886;2023-04-15T01:50:57;91906.88;;;5.43;51.39
59289;BME280;45056;47.602;9.886;2023-04-15T01:53:26;91914.97;;;5.43;51.62
59289;BME280;45056;47.602;9.886;2023-04-15T01:55:54;91913.88;;;5.40;51.72
59289;BME280;45056;47.602;9.886;2023-04-15T01:58:24;91914.88;;;5.33;52.27
59289;BME280;45056;47.602;9.886;2023-04-15T02:00:52;91920.91;;;5.25;52.43
59289;BME280;45056;47.602;9.886;2023-04-15T02:03:20;91922.72;;;5.15;53.17
59289;BME280;45056;47.602;9.886;2023-04-15T02:05:48;91920.25;;;5.08;53.51
59289;BME280;45056;47.602;9.886;2023-04-15T02:08:17;91920.81;;;5.02;53.63
59289;BME280;45056;47.602;9.886;2023-04-15T02:10:45;91922.50;;;4.96;54.02
59289;BME280;45056;47.602;9.886;2023-04-15T02:13:12;91923.69;;;4.95;54.12
59289;BME280;45056;47.602;9.886;2023-04-15T02:15:46;91918.28;;;4.95;53.93
59289;BME280;45056;47.602;9.886;2023-04-15T02:18:15;91918.28;;;4.95;53.40
59289;BME280;45056;47.602;9.886;2023-04-15T02:20:43;91919.81;;;4.96;53.46
59289;BME280;45056;47.602;9.886;2023-04-15T02:23:12;91922.81;;;4.98;53.39
59289;BME280;45056;47.602;9.886;2023-04-15T02:25:41;91914.31;;;5.00;53.66
59289;BME280;45056;47.602;9.886;2023-04-15T02:28:09;91914.00;;;4.98;53.64
59289;BME280;45056;47.602;9.886;2023-04-15T02:30:37;91921.00;;;4.95;53.59
59289;BME280;45056;47.602;9.886;2023-04-15T02:33:07;91914.53;;;4.93;53.52
59289;BME280;45056;47.602;9.886;2023-04-15T02:35:35;91918.41;;;4.91;53.04
59289;BME280;45056;47.602;9.886;2023-04-15T02:38:07;91912.56;;;4.93;53.12
59289;BME280;45056;47.602;9.886;2023-04-15T02:40:35;91927.56;;;4.94;52.67
59289;BME280;45056;47.602;9.886;2023-04-15T02:43:03;91922.19;;;4.94;52.81
59289;BME280;45056;47.602;9.886;2023-04-15T02:45:32;91909.03;;;4.96;52.63
59289;BME280;45056;47.602;9.886;2023-04-15T02:48:00;91911.31;;;4.98;52.67
59289;BME280;45056;47.602;9.886;2023-04-15T02:50:32;91913.56;;;4.99;52.74
59289;BME280;45056;47.602;9.886;2023-04-15T02:53:00;91912.81;;;4.99;52.71
59289;BME280;45056;47.602;9.886;2023-04-15T02:55:28;91909.69;;;5.00;52.70
59289;BME280;45056;47.602;9.886;2023-04-15T02:57:57;91916.59;;;5.01;52.67
59289;BME280;45056;47.602;9.886;2023-04-15T03:00:26;91910.44;;;5.01;52.65
59289;BME280;45056;47.602;9.886;2023-04-15T03:02:57;91908.94;;;5.00;52.57
59289;BME280;45056;47.602;9.886;2023-04-15T03:05:29;91903.53;;;5.00;52.79
59289;BME280;45056;47.602;9.886;2023-04-15T03:07:59;91909.69;;;5.00;52.83
59289;BME280;45056;47.602;9.886;2023-04-15T03:10:28;91914.31;;;5.00;52.66
59289;BME280;45056;47.602;9.886;2023-04-15T03:12:56;91914.72;;;4.98;52.34
59289;BME280;45056;47.602;9.886;2023-04-15T03:15:24;91924.34;;;4.99;52.35
59289;BME280;45056;47.602;9.886;2023-04-15T03:17:52;91917.88;;;4.97;52.23
59289;BME280;45056;47.602;9.886;2023-04-15T03:20:20;91916.78;;;4.94;52.16
59289;BME280;45056;47.602;9.886;2023-04-15T03:22:48;91907.63;;;4.91;52.10
59289;BME280;45056;47.602;9.886;2023-04-15T03:25:18;91916.13;;;4.90;52.26
59289;BME280;45056;47.602;9.886;2023-04-15T03:27:46;91914.63;;;4.89;52.46
59289;BME280;45056;47.602;9.886;2023-04-15T03:30:14;91916.59;;;4.88;52.16
59289;BME280;45056;47.602;9.886;2023-04-15T03:32:42;91920.47;;;4.87;52.43
59289;BME280;45056;47.602;9.886;2023-04-15T03:35:09;91915.50;;;4.86;52.49
59289;BME280;45056;47.602;9.886;2023-04-15T03:37:38;91921.66;;;4.86;52.51
59289;BME280;45056;47.602;9.886;2023-04-15T03:40:07;91913.25;;;4.84;52.37
59289;BME280;45056;47.602;9.886;2023-04-15T03:42:37;91918.19;;;4.86;52.43
59289;BME280;45056;47.602;9.886;2023-04-15T03:45:06;91915.16;;;4.84;52.37
59289;BME280;45056;47.602;9.886;2023-04-15T03:47:35;91913.34;;;4.81;53.04
59289;BME280;45056;47.602;9.886;2023-04-15T03:50:04;91909.53;;;4.78;52.90
59289;BME280;45056;47.602;9.886;2023-04-15T03:52:32;91911.50;;;4.78;52.88
59289;BME280;45056;47.602;9.886;2023-04-15T03:55:00;91907.63;;;4.79;52.48
59289;BME280;45056;47.602;9.886;2023-04-15T03:57:28;91908.81;;;4.78;52.27
59289;BME280;45056;47.602;9.886;2023-04-15T03:59:58;91908.81;;;4.78;52.18
59289;BME280;45056;47.602;9.886;2023-04-15T04:02:26;91909.88;;;4.80;52.00
59289;BME280;45056;47.602;9.886;2023-04-15T04:04:54;91906.44;;;4.80;51.83
59289;BME280;45056;47.602;9.886;2023-04-15T04:07:23;91908.69;;;4.81;51.91
59289;BME280;45056;47.602;9.886;2023-04-15T04:09:51;91905.25;;;4.81;51.60
59289;BME280;45056;47.602;9.886;2023-04-15T04:12:19;91909.13;;;4.80;51.46
59289;BME280;45056;47.602;9.886;2023-04-15T04:14:47;91908.34;;;4.79;51.38
59289;BME280;45056;47.602;9.886;2023-04-15T04:17:16;91913.75;;;4.79;51.55
59289;BME280;45056;47.602;9.886;2023-04-15T04:19:44;91913.09;;;4.75;51.58
59289;BME280;45056;47.602;9.886;2023-04-15T04:22:12;91909.66;;;4.74;51.43
59289;BME280;45056;47.602;9.886;2023-04-15T04:24:40;91910.09;;;4.73;51.49
59289;BME280;45056;47.602;9.886;2023-04-15T04:27:08;91915.06;;;4.74;51.67
59289;BME280;45056;47.602;9.886;2023-04-15T04:29:36;91913.53;;;4.73;51.61
59289;BME280;45056;47.602;9.886;2023-04-15T04:32:04;91920.44;;;4.74;51.60
59289;BME280;45056;47.602;9.886;2023-04-15T04:34:33;91918.06;;;4.76;51.74
59289;BME280;45056;47.602;9.886;2023-04-15T04:37:02;91918.06;;;4.76;51.69
59289;BME280;45056;47.602;9.886;2023-04-15T04:39:29;91913.00;;;4.79;51.60
59289;BME280;45056;47.602;9.886;2023-04-15T04:41:58;91914.53;;;4.80;51.22
59289;BME280;45056;47.602;9.886;2023-04-15T04:44:26;91914.84;;;4.82;51.29
59289;BME280;45056;47.602;9.886;2023-04-15T04:46:54;91914.84;;;4.82;51.18
59289;BME280;45056;47.602;9.886;2023-04-15T04:49:22;91924.34;;;4.86;51.04
59289;BME280;45056;47.602;9.886;2023-04-15T04:51:51;91922.28;;;4.90;51.08
59289;BME280;45056;47.602;9.886;2023-04-15T04:54:19;91926.38;;;4.95;51.26
59289;BME280;45056;47.602;9.886;2023-04-15T04:56:47;91931.69;;;4.99;51.37
59289;BME280;45056;47.602;9.886;2023-04-15T04:59:16;91937.72;;;5.03;51.28
59289;BME280;45056;47.602;9.886;2023-04-15T05:01:43;91938.03;;;5.05;51.39
59289;BME280;45056;47.602;9.886;2023-04-15T05:04:12;91937.31;;;5.04;51.44
59289;BME280;45056;47.602;9.886;2023-04-15T05:06:39;91949.28;;;5.03;51.88
59289;BME280;45056;47.602;9.886;2023-04-15T05:09:09;91944.63;;;5.04;51.51
59289;BME280;45056;47.602;9.886;2023-04-15T05:11:37;91938.81;;;5.05;51.75
59289;BME280;45056;47.602;9.886;2023-04-15T05:14:05;91942.56;;;5.08;51.31
59289;BME280;45056;47.602;9.886;2023-04-15T05:16:33;91939.78;;;5.12;51.18
59289;BME280;45056;47.602;9.886;2023-04-15T05:19:00;91934.72;;;5.14;50.95
59289;BME280;45056;47.602;9.886;2023-04-15T05:21:28;91933.84;;;5.17;51.02
59289;BME280;45056;47.602;9.886;2023-04-15T05:23:57;91934.50;;;5.21;50.75
59289;BME280;45056;47.602;9.886;2023-04-15T05:26:26;91939.78;;;5.25;50.53
59289;BME280;45056;47.602;9.886;2023-04-15T05:28:54;91944.63;;;5.30;50.62
59289;BME280;45056;47.602;9.886;2023-04-15T05:31:24;91946.78;;;5.35;50.71
59289;BME280;45056;47.602;9.886;2023-04-15T05:33:59;91941.28;;;5.39;50.40
59289;BME280;45056;47.602;9.886;2023-04-15T05:36:27;91939.22;;;5.43;50.16
59289;BME280;45056;47.602;9.886;2023-04-15T05:38:56;91936.75;;;5.48;50.03
59289;BME280;45056;47.602;9.886;2023-04-15T05:41:26;91928.44;;;5.56;49.92
59289;BME280;45056;47.602;9.886;2023-04-15T05:43:54;91926.28;;;5.63;49.96
59289;BME280;45056;47.602;9.886;2023-04-15T05:46:22;91932.63;;;5.70;49.78
59289;BME280;45056;47.602;9.886;2023-04-15T05:48:50;91934.78;;;5.75;49.16
59289;BME280;45056;47.602;9.886;2023-04-15T05:51:18;91927.41;;;5.75;49.00
59289;BME280;45056;47.602;9.886;2023-04-15T05:53:46;91931.50;;;5.80;48.83
59289;BME280;45056;47.602;9.886;2023-04-15T05:56:14;91932.91;;;5.85;49.12
59289;BME280;45056;47.602;9.886;2023-04-15T05:58:44;91928.47;;;5.91;49.09
59289;BME280;45056;47.602;9.886;2023-04-15T06:01:12;91935.13;;;5.99;49.08
59289;BME280;45056;47.602;9.886;2023-04-15T06:03:41;91932.13;;;6.10;48.72
59289;BME280;45056;47.602;9.886;2023-04-15T06:06:10;91935.97;;;6.22;48.84
59289;BME280;45056;47.602;9.886;2023-04-15T06:08:39;91931.72;;;6.34;48.27
59289;BME280;45056;47.602;9.886;2023-04-15T06:11:07;91936.28;;;6.46;48.08
59289;BME280;45056;47.602;9.886;2023-04-15T06:13:35;91937.13;;;6.56;47.58
59289;BME280;45056;47.602;9.886;2023-04-15T06:16:05;91939.56;;;6.63;47.35
59289;BME280;45056;47.602;9.886;2023-04-15T06:18:34;91935.84;;;6.70;47.12
59289;BME280;45056;47.602;9.886;2023-04-15T06:21:02;91939.50;;;6.76;47.02
59289;BME280;45056;47.602;9.886;2023-04-15T06:23:33;91941.31;;;6.79;47.17
59289;BME280;45056;47.602;9.886;2023-04-15T06:26:01;91943.91;;;6.83;46.94
59289;BME280;45056;47.602;9.886;2023-04-15T06:28:29;91937.28;;;6.84;47.17
59289;BME280;45056;47.602;9.886;2023-04-15T06:30:57;91939.53;;;6.86;47.22
59289;BME280;45056;47.602;9.886;2023-04-15T06:33:28;91936.84;;;6.86;47.43
59289;BME280;45056;47.602;9.886;2023-04-15T06:35:56;91948.41;;;6.86;47.67
59289;BME280;45056;47.602;9.886;2023-04-15T06:38:24;91948.41;;;6.86;47.63
59289;BME280;45056;47.602;9.886;2023-04-15T06:40:52;91950.34;;;6.86;47.47
59289;BME280;45056;47.602;9.886;2023-04-15T06:43:20;91951.44;;;6.88;47.69
59289;BME280;45056;47.602;9.886;2023-04-15T06:45:48;91952.81;;;6.93;47.68
59289;BME280;45056;47.602;9.886;2023-04-15T06:48:16;91954.94;;;6.98;47.57
59289;BME280;45056;47.602;9.886;2023-04-15T06:50:45;91957.06;;;7.03;47.33
59289;BME280;45056;47.602;9.886;2023-04-15T06:53:13;91961.59;;;7.06;47.36
59289;BME280;45056;47.602;9.886;2023-04-15T06:55:42;91964.50;;;7.12;47.39
59289;BME280;45056;47.602;9.886;2023-04-15T06:58:11;91952.66;;;7.19;47.40
59289;BME280;45056;47.602;9.886;2023-04-15T07:00:39;91958.41;;;7.30;47.55
59289;BME280;45056;47.602;9.886;2023-04-15T07:03:07;91958.31;;;7.43;47.62
59289;BME280;45056;47.602;9.886;2023-04-15T07:05:36;91961.38;;;7.55;47.86
59289;BME280;45056;47.602;9.886;2023-04-15T07:08:06;91951.63;;;7.67;47.90
59289;BME280;45056;47.602;9.886;2023-04-15T07:10:34;91963.53;;;7.78;47.85
59289;BME280;45056;47.602;9.886;2023-04-15T07:13:03;91955.00;;;7.89;47.58
59289;BME280;45056;47.602;9.886;2023-04-15T07:15:32;91952.91;;;8.03;47.28
59289;BME280;45056;47.602;9.886;2023-04-15T07:18:00;91948.72;;;8.20;47.01
59289;BME280;45056;47.602;9.886;2023-04-15T07:20:28;91946.91;;;8.36;45.97
59289;BME280;45056;47.602;9.886;2023-04-15T07:22:56;91945.91;;;8.52;45.24
59289;BME280;45056;47.602;9.886;2023-04-15T07:25:25;91951.16;;;8.65;44.60
59289;BME280;45056;47.602;9.886;2023-04-15T07:27:53;91949.06;;;8.78;44.20
59289;BME280;45056;47.602;9.886;2023-04-15T07:30:21;91946.63;;;8.90;44.17
59289;BME280;45056;47.602;9.886;2023-04-15T07:32:49;91949.91;;;9.03;44.16
59289;BME280;45056;47.602;9.886;2023-04-15T07:35:18;91939.31;;;9.24;43.99
59289;BME280;45056;47.602;9.886;2023-04-15T07:37:46;91946.44;;;9.55;42.94
59289;BME280;45056;47.602;9.886;2023-04-15T07:40:14;91947.47;;;9.91;42.53
59289;BME280;45056;47.602;9.886;2023-04-15T07:42:44;91949.63;;;10.36;42.05
59289;BME280;45056;47.602;9.886;2023-04-15T07:45:15;91943.19;;;10.88;41.40
59289;BME280;45056;47.602;9.886;2023-04-15T07:47:43;91942.34;;;11.42;40.41
59289;BME280;45056;47.602;9.886;2023-04-15T07:50:11;91946.97;;;11.86;38.82
59289;BME280;45056;47.602;9.886;2023-04-15T07:52:40;91950.28;;;12.11;38.16
59289;BME280;45056;47.602;9.886;2023-04-15T07:55:09;91940.50;;;12.19;37.38
59289;BME280;45056;47.602;9.886;2023-04-15T07:57:37;91950.38;;;12.17;37.85
59289;BME280;45056;47.602;9.886;2023-04-15T08:00:07;91940.56;;;12.04;38.32
59289;BME280;45056;47.602;9.886;2023-04-15T08:02:36;91936.41;;;11.94;38.63
59289;BME280;45056;47.602;9.886;2023-04-15T08:05:05;91934.28;;;11.83;39.17
59289;BME280;45056;47.602;9.886;2023-04-15T08:07:34;91943.53;;;11.71;39.46
59289;BME280;45056;47.602;9.886;2023-04-15T08:10:03;91933.69;;;11.58;40.02
59289;BME280;45056;47.602;9.886;2023-04-15T08:12:32;91931.53;;;11.47;40.79
59289;BME280;45056;47.602;9.886;2023-04-15T08:15:00;91933.63;;;11.37;40.70
59289;BME280;45056;47.602;9.886;2023-04-15T08:17:30;91940.41;;;11.27;41.04
59289;BME280;45056;47.602;9.886;2023-04-15T08:19:58;91940.47;;;11.18;41.52
59289;BME280;45056;47.602;9.886;2023-04-15T08:22:26;91940.13;;;11.10;41.84
59289;BME280;45056;47.602;9.886;2023-04-15T08:24:54;91936.25;;;11.02;42.31
59289;BME280;45056;47.602;9.886;2023-04-15T08:27:22;91936.91;;;10.96;41.70
59289;BME280;45056;47.602;9.886;2023-04-15T08:29:50;91937.28;;;10.89;41.23
59289;BME280;45056;47.602;9.886;2023-04-15T08:32:18;91931.44;;;10.81;40.90
59289;BME280;45056;47.602;9.886;2023-04-15T08:34:47;91934.06;;;10.76;41.17
59289;BME280;45056;47.602;9.886;2023-04-15T08:37:15;91937.25;;;10.74;41.51
59289;BME280;45056;47.602;9.886;2023-04-15T08:39:44;91944.09;;;10.70;41.20
59289;BME280;45056;47.602;9.886;2023-04-15T08:42:16;91938.09;;;10.65;41.47
59289;BME280;45056;47.602;9.886;2023-04-15T08:44:50;91938.38;;;10.67;42.06
59289;BME280;45056;47.602;9.886;2023-04-15T08:47:20;91935.94;;;10.70;42.22
59289;BME280;45056;47.602;9.886;2023-04-15T08:49:54;91947.38;;;10.74;42.74
59289;BME280;45056;47.602;9.886;2023-04-15T08:52:25;91944.03;;;10.79;44.38
59289;BME280;45056;47.602;9.886;2023-04-15T08:54:56;91950.50;;;10.81;45.64
59289;BME280;45056;47.602;9.886;2023-04-15T08:57:25;91947.22;;;10.77;46.05
59289;BME280;45056;47.602;9.886;2023-04-15T08:59:55;91950.88;;;10.74;46.07
59289;BME280;45056;47.602;9.886;2023-04-15T09:02:25;91956.75;;;10.73;46.62
59289;BME280;45056;47.602;9.886;2023-04-15T09:04:55;91958.25;;;10.74;47.25
59289;BME280;45056;47.602;9.886;2023-04-15T09:07:23;91958.09;;;10.77;47.42
59289;BME280;45056;47.602;9.886;2023-04-15T09:09:51;91961.66;;;10.83;47.28
59289;BME280;45056;47.602;9.886;2023-04-15T09:12:19;91957.53;;;10.88;46.90
59289;BME280;45056;47.602;9.886;2023-04-15T09:14:48;91957.34;;;10.92;46.69
59289;BME280;45056;47.602;9.886;2023-04-15T09:17:18;91963.38;;;10.96;46.52
59289;BME280;45056;47.602;9.886;2023-04-15T09:19:47;91957.00;;;10.99;46.46
59289;BME280;45056;47.602;9.886;2023-04-15T09:22:19;91960.56;;;11.05;45.94
59289;BME280;45056;47.602;9.886;2023-04-15T09:24:48;91959.44;;;11.12;45.75
59289;BME280;45056;47.602;9.886;2023-04-15T09:27:16;91964.03;;;11.21;44.52
59289;BME280;45056;47.602;9.886;2023-04-15T09:29:48;91966.19;;;11.32;43.15
59289;BME280;45056;47.602;9.886;2023-04-15T09:32:17;91966.69;;;11.45;42.15
59289;BME280;45056;47.602;9.886;2023-04-15T09:34:45;91953.97;;;11.57;42.00
59289;BME280;45056;47.602;9.886;2023-04-15T09:37:13;91958.38;;;11.69;41.97
59289;BME280;45056;47.602;9.886;2023-04-15T09:39:46;91954.13;;;11.83;40.68
59289;BME280;45056;47.602;9.886;2023-04-15T09:42:16;91948.81;;;11.95;40.59
59289;BME280;45056;47.602;9.886;2023-04-15T09:44:49;91954.94;;;12.05;40.63
59289;BME280;45056;47.602;9.886;2023-04-15T09:47:28;91957.53;;;12.14;40.58
59289;BME280;45056;47.602;9.886;2023-04-15T09:49:57;91943.97;;;12.20;39.68
59289;BME280;45056;47.602;9.886;2023-04-15T09:52:26;91953.19;;;12.22;39.22
59289;BME280;45056;47.602;9.886;2023-04-15T09:54:57;91949.50;;;12.25;37.77
59289;BME280;45056;47.602;9.886;2023-04-15T09:57:33;91957.97;;;12.27;37.76
59289;BME280;45056;47.602;9.886;2023-04-15T10:00:02;91954.81;;;12.35;37.98
59289;BME280;45056;47.602;9.886;2023-04-15T10:02:31;91957.41;;;12.44;37.92
59289;BME280;45056;47.602;9.886;2023-04-15T10:05:00;91950.25;;;12.47;36.37
59289;BME280;45056;47.602;9.886;2023-04-15T10:07:29;91952.22;;;12.46;36.11
59289;BME280;45056;47.602;9.886;2023-04-15T10:09:59;91961.91;;;12.47;35.81
59289;BME280;45056;47.602;9.886;2023-04-15T10:12:28;91955.25;;;12.48;36.94
59289;BME280;45056;47.602;9.886;2023-04-15T10:15:03;91959.47;;;12.49;36.78
59289;BME280;45056;47.602;9.886;2023-04-15T10:17:34;91962.22;;;12.49;36.69
59289;BME280;45056;47.602;9.886;2023-04-15T10:20:05;91961.25;;;12.52;36.56
59289;BME280;45056;47.602;9.886;2023-04-15T10:22:35;91957.84;;;12.58;36.96
59289;BME280;45056;47.602;9.886;2023-04-15T10:25:06;91964.09;;;12.64;36.69
59289;BME280;45056;47.602;9.886;2023-04-15T10:27:36;91970.38;;;12.70;36.26
59289;BME280;45056;47.602;9.886;2023-04-15T10:30:08;91964.22;;;12.75;36.38
59289;BME280;45056;47.602;9.886;2023-04-15T10:32:37;91967.00;;;12.81;36.64
59289;BME280;45056;47.602;9.886;2023-04-15T10:35:08;91964.63;;;12.89;36.21
59289;BME280;45056;47.602;9.886;2023-04-15T10:37:37;91973.63;;;12.95;36.67
59289;BME280;45056;47.602;9.886;2023-04-15T10:40:26;91965.75;;;13.03;36.10
59289;BME280;45056;47.602;9.886;2023-04-15T10:42:58;91975.97;;;13.08;36.49
59289;BME280;45056;47.602;9.886;2023-04-15T10:45:31;91972.22;;;13.05;37.12
59289;BME280;45056;47.602;9.886;2023-04-15T10:48:02;91970.25;;;13.06;37.24
59289;BME280;45056;47.602;9.886;2023-04-15T10:50:33;91966.75;;;13.05;36.25
59289;BME280;45056;47.602;9.886;2023-04-15T10:53:02;91970.25;;;13.06;35.84
59289;BME280;45056;47.602;9.886;2023-04-15T10:55:33;91974.75;;;13.09;36.46
59289;BME280;45056;47.602;9.886;2023-04-15T10:58:01;91964.88;;;13.11;36.06
59289;BME280;45056;47.602;9.886;2023-04-15T11:00:31;91975.81;;;13.17;36.16
59289;BME280;45056;47.602;9.886;2023-04-15T11:03:05;91975.88;;;13.23;35.48
59289;BME280;45056;47.602;9.886;2023-04-15T11:05:51;91979.63;;;13.25;35.38
59289;BME280;45056;47.602;9.886;2023-04-15T11:08:53;91980.66;;;13.28;34.79
59289;BME280;45056;47.602;9.886;2023-04-15T11:14:39;91983.69;;;13.36;35.77
59289;BME280;45056;47.602;9.886;2023-04-15T11:17:08;91990.16;;;13.38;34.89
59289;BME280;45056;47.602;9.886;2023-04-15T11:19:36;91989.53;;;13.44;34.68
59289;BME280;45056;47.602;9.886;2023-04-15T11:22:06;91990.09;;;13.53;35.44
59289;BME280;45056;47.602;9.886;2023-04-15T11:24:35;91995.13;;;13.61;34.69
59289;BME280;45056;47.602;9.886;2023-04-15T11:27:03;91989.94;;;13.63;34.85
59289;BME280;45056;47.602;9.886;2023-04-15T11:29:33;91998.41;;;13.65;35.40
59289;BME280;45056;47.602;9.886;2023-04-15T11:32:04;91998.91;;;13.69;34.92
59289;BME280;45056;47.602;9.886;2023-04-15T11:34:33;91995.00;;;13.76;34.61
59289;BME280;45056;47.602;9.886;2023-04-15T11:37:03;91996.75;;;13.79;34.21
59289;BME280;45056;47.602;9.886;2023-04-15T11:39:33;92007.69;;;13.79;33.95
59289;BME280;45056;47.602;9.886;2023-04-15T11:42:01;92004.97;;;13.79;34.16
59289;BME280;45056;47.602;9.886;2023-04-15T11:44:29;92005.97;;;13.81;34.43
59289;BME280;45056;47.602;9.886;2023-04-15T11:46:59;92016.13;;;13.75;33.84
59289;BME280;45056;47.602;9.886;2023-04-15T11:49:28;92017.28;;;13.68;34.35
59289;BME280;45056;47.602;9.886;2023-04-15T11:51:59;92012.31;;;13.67;34.32
59289;BME280;45056;47.602;9.886;2023-04-15T11:54:27;92018.53;;;13.67;34.27
59289;BME280;45056;47.602;9.886;2023-04-15T11:56:55;92017.53;;;13.65;33.83
59289;BME280;45056;47.602;9.886;2023-04-15T11:59:23;92020.53;;;13.67;33.93
59289;BME280;45056;47.602;9.886;2023-04-15T12:01:51;92030.22;;;13.68;34.89
59289;BME280;45056;47.602;9.886;2023-04-15T12:04:20;92026.19;;;13.63;34.70
59289;BME280;45056;47.602;9.886;2023-04-15T12:06:49;92026.69;;;13.62;35.21
59289;BME280;45056;47.602;9.886;2023-04-15T12:09:17;92030.16;;;13.62;34.21
59289;BME280;45056;47.602;9.886;2023-04-15T12:11:47;92034.41;;;13.63;33.72
59289;BME280;45056;47.602;9.886;2023-04-15T12:14:23;92037.91;;;13.69;33.38
59289;BME280;45056;47.602;9.886;2023-04-15T12:16:53;92036.28;;;13.78;33.80
59289;BME280;45056;47.602;9.886;2023-04-15T12:19:28;92036.56;;;13.85;34.39
59289;BME280;45056;47.602;9.886;2023-04-15T12:21:59;92035.66;;;13.94;34.77
59289;BME280;45056;47.602;9.886;2023-04-15T12:24:31;92046.38;;;13.98;34.21
59289;BME280;45056;47.602;9.886;2023-04-15T12:27:03;92039.88;;;13.95;33.38
59289;BME280;45056;47.602;9.886;2023-04-15T12:29:35;92044.56;;;13.89;32.67
59289;BME280;45056;47.602;9.886;2023-04-15T12:32:06;92053.47;;;13.84;32.51
59289;BME280;45056;47.602;9.886;2023-04-15T12:34:37;92052.41;;;13.76;31.93
59289;BME280;45056;47.602;9.886;2023-04-15T12:37:09;92052.56;;;13.66;31.70
59289;BME280;45056;47.602;9.886;2023-04-15T12:39:41;92055.00;;;13.59;31.78
59289;BME280;45056;47.602;9.886;2023-04-15T12:42:11;92055.94;;;13.55;31.95
59289;BME280;45056;47.602;9.886;2023-04-15T12:44:41;92063.34;;;13.49;31.86
59289;BME280;45056;47.602;9.886;2023-04-15T12:47:10;92062.22;;;13.41;31.91
59289;BME280;45056;47.602;9.886;2023-04-15T12:49:40;92067.16;;;13.37;32.72
59289;BME280;45056;47.602;9.886;2023-04-15T12:52:08;92070.31;;;13.30;32.47
59289;BME280;45056;47.602;9.886;2023-04-15T12:54:36;92072.44;;;13.20;32.58
59289;BME280;45056;47.602;9.886;2023-04-15T12:57:05;92076.81;;;13.11;32.59
59289;BME280;45056;47.602;9.886;2023-04-15T12:59:33;92085.41;;;13.04;32.01
59289;BME280;45056;47.602;9.886;2023-04-15T13:02:02;92077.81;;;12.93;31.42
59289;BME280;45056;47.602;9.886;2023-04-15T13:04:30;92090.59;;;12.81;31.67
59289;BME280;45056;47.602;9.886;2023-04-15T13:07:00;92091.47;;;12.73;32.31
59289;BME280;45056;47.602;9.886;2023-04-15T13:09:28;92097.63;;;12.67;32.65
59289;BME280;45056;47.602;9.886;2023-04-15T13:11:56;92091.81;;;12.60;31.67
59289;BME280;45056;47.602;9.886;2023-04-15T13:14:24;92098.13;;;12.51;31.14
59289;BME280;45056;47.602;9.886;2023-04-15T13:16:52;92097.47;;;12.41;31.70
59289;BME280;45056;47.602;9.886;2023-04-15T13:19:20;92103.34;;;12.34;32.69
59289;BME280;45056;47.602;9.886;2023-04-15T13:21:48;92103.06;;;12.32;33.93